createdAt,value
2018-08-03T00:00:13.310Z,101743.92
2018-08-03T00:02:42.775Z,101742.81
2018-08-03T00:05:11.868Z,101740.06
2018-08-03T00:07:40.982Z,101738.04
2018-08-03T00:10:10.555Z,101741.47
2018-08-03T00:12:39.644Z,101733.30
2018-08-03T00:15:08.995Z,101734.14
2018-08-03T00:17:38.236Z,101734.86
2018-08-03T00:20:08.213Z,101734.66
2018-08-03T00:22:37.289Z,101737.66
2018-08-03T00:25:07.589Z,101726.98
2018-08-03T00:27:36.665Z,101731.53
2018-08-03T00:30:06.316Z,101724.48
2018-08-03T00:32:35.793Z,101722.81
2018-08-03T00:35:05.474Z,101725.95
2018-08-03T00:37:34.548Z,101728.64
2018-08-03T00:40:03.734Z,101724.19
2018-08-03T00:42:33.511Z,101728.24
2018-08-03T00:45:02.651Z,101725.94
2018-08-03T00:47:31.715Z,101730.22
2018-08-03T00:50:01.207Z,101728.14
2018-08-03T00:52:30.239Z,101732.86
2018-08-03T00:54:59.529Z,101728.80
2018-08-03T00:57:28.721Z,101732.76
2018-08-03T00:59:57.807Z,101733.20
2018-08-03T01:02:26.889Z,101725.08
2018-08-03T01:04:56.187Z,101723.22
2018-08-03T01:07:25.475Z,101717.87
2018-08-03T01:09:54.549Z,101729.19
2018-08-03T01:12:24.272Z,101724.69
2018-08-03T01:14:53.375Z,101723.10
2018-08-03T01:17:22.468Z,101723.28
2018-08-03T01:19:51.748Z,101718.98
2018-08-03T01:22:20.979Z,101721.59
2018-08-03T01:24:50.017Z,101726.88
2018-08-03T01:27:19.104Z,101725.09
2018-08-03T01:29:48.649Z,101716.64
2018-08-03T01:32:17.723Z,101722.66
2018-08-03T01:34:46.778Z,101726.30
2018-08-03T01:37:16.388Z,101724.67
2018-08-03T01:39:45.532Z,101719.17
2018-08-03T01:42:14.591Z,101723.05
2018-08-03T01:44:44.582Z,101721.34
2018-08-03T01:47:13.875Z,101714.94
2018-08-03T01:49:42.929Z,101713.80
2018-08-03T01:52:12.033Z,101713.94
2018-08-03T01:54:41.164Z,101717.32
2018-08-03T01:57:30.360Z,101706.88
2018-08-03T02:00:02.354Z,101716.73
2018-08-03T02:02:32.001Z,101713.41
2018-08-03T02:05:01.934Z,101709.32
2018-08-03T02:07:31.317Z,101712.02
2018-08-03T02:10:00.554Z,101711.02
2018-08-03T02:12:29.613Z,101714.09
2018-08-03T02:14:58.710Z,101709.94
2018-08-03T02:17:27.788Z,101708.73
2018-08-03T02:19:56.875Z,101705.44
2018-08-03T02:22:26.199Z,101706.52
2018-08-03T02:24:55.683Z,101704.73
2018-08-03T02:27:24.970Z,101709.13
2018-08-03T02:29:54.048Z,101704.11
2018-08-03T02:32:23.101Z,101706.35
2018-08-03T02:34:52.999Z,101700.23
2018-08-03T02:37:22.385Z,101705.76
2018-08-03T02:39:51.515Z,101708.45
2018-08-03T02:42:20.597Z,101706.03
2018-08-03T02:44:50.210Z,101712.55
2018-08-03T02:47:19.279Z,101710.26
2018-08-03T02:49:48.346Z,101712.82
2018-08-03T02:52:17.588Z,101720.05
2018-08-03T02:54:46.696Z,101724.44
2018-08-03T02:57:15.891Z,101727.78
2018-08-03T02:59:44.973Z,101731.09
2018-08-03T03:02:14.079Z,101724.56
2018-08-03T03:04:43.564Z,101728.05
2018-08-03T03:07:13.081Z,101726.58
2018-08-03T03:09:42.146Z,101723.80
2018-08-03T03:12:11.260Z,101727.11
2018-08-03T03:14:40.360Z,101725.42
2018-08-03T03:17:09.774Z,101718.95
2018-08-03T03:19:39.023Z,101725.22
2018-08-03T03:22:08.249Z,101728.64
2018-08-03T03:24:37.561Z,101727.69
2018-08-03T03:27:06.640Z,101732.70
2018-08-03T03:29:35.915Z,101724.75
2018-08-03T03:32:05.257Z,101726.61
2018-08-03T03:34:34.518Z,101726.83
2018-08-03T03:37:03.576Z,101732.95
2018-08-03T03:39:33.356Z,101732.70
2018-08-03T03:42:02.887Z,101731.22
2018-08-03T03:44:31.994Z,101735.05
2018-08-03T03:47:01.551Z,101734.91
2018-08-03T03:49:30.643Z,101732.34
2018-08-03T03:52:01.323Z,101735.05
2018-08-03T03:54:30.457Z,101730.40
2018-08-03T03:56:59.590Z,101735.31
2018-08-03T03:59:29.198Z,101732.53
2018-08-03T04:01:58.299Z,101734.35
2018-08-03T04:04:27.658Z,101735.19
2018-08-03T04:06:56.887Z,101734.36
2018-08-03T04:09:25.995Z,101738.92
2018-08-03T04:11:55.065Z,101730.23
2018-08-03T04:14:24.403Z,101723.24
2018-08-03T04:16:53.478Z,101721.41
2018-08-03T04:19:22.554Z,101721.90
2018-08-03T04:21:52.185Z,101728.41
2018-08-03T04:24:21.271Z,101721.20
2018-08-03T04:26:50.344Z,101712.61
2018-08-03T04:29:19.782Z,101718.00
2018-08-03T04:31:48.877Z,101721.77
2018-08-03T04:34:18.014Z,101718.73
2018-08-03T04:36:47.179Z,101725.45
2018-08-03T04:39:16.301Z,101715.55
2018-08-03T04:41:46.733Z,101725.33
2018-08-03T04:44:16.042Z,101727.42
2018-08-03T04:46:45.382Z,101727.28
2018-08-03T04:49:15.091Z,101724.97
2018-08-03T04:51:44.261Z,101733.00
2018-08-03T04:54:13.364Z,101736.80
2018-08-03T04:56:42.697Z,101737.05
2018-08-03T04:59:11.839Z,101741.09
2018-08-03T05:01:41.039Z,101738.61
2018-08-03T05:04:10.397Z,101742.13
2018-08-03T05:06:39.530Z,101748.34
2018-08-03T05:09:08.925Z,101741.47
2018-08-03T05:11:38.190Z,101742.69
2018-08-03T05:14:07.300Z,101744.77
2018-08-03T05:16:36.379Z,101748.94
2018-08-03T05:19:06.204Z,101751.02
2018-08-03T05:21:35.345Z,101746.23
2018-08-03T05:24:04.530Z,101751.23
2018-08-03T05:26:35.046Z,101745.57
2018-08-03T05:29:04.146Z,101750.96
2018-08-03T05:31:33.250Z,101751.31
2018-08-03T05:34:02.413Z,101753.13
2018-08-03T05:36:31.524Z,101745.38
2018-08-03T05:39:03.633Z,101749.95
2018-08-03T05:41:32.872Z,101745.91
2018-08-03T05:44:01.996Z,101743.07
2018-08-03T05:46:31.896Z,101744.50
2018-08-03T05:49:01.143Z,101739.57
2018-08-03T05:51:30.241Z,101744.33
2018-08-03T05:53:59.651Z,101737.18
2018-08-03T05:56:29.241Z,101744.00
2018-08-03T05:58:58.779Z,101746.46
2018-08-03T06:01:27.956Z,101739.80
2018-08-03T06:03:57.049Z,101741.46
2018-08-03T06:06:32.493Z,101742.16
2018-08-03T06:09:01.579Z,101742.99
2018-08-03T06:11:30.923Z,101750.54
2018-08-03T06:14:00.536Z,101750.58
2018-08-03T06:16:29.884Z,101751.60
2018-08-03T06:18:59.346Z,101758.20
2018-08-03T06:21:30.241Z,101752.33
2018-08-03T06:24:00.404Z,101746.45
2018-08-03T06:26:29.675Z,101745.91
2018-08-03T06:28:59.191Z,101748.19
2018-08-03T06:31:28.607Z,101754.25
2018-08-03T06:33:57.682Z,101749.03
2018-08-03T06:36:26.801Z,101748.93
2018-08-03T06:38:56.082Z,101750.97
2018-08-03T06:41:25.733Z,101750.72
2018-08-03T06:43:54.989Z,101759.05
2018-08-03T06:46:25.519Z,101760.20
2018-08-03T06:48:54.922Z,101753.89
2018-08-03T06:51:24.114Z,101754.30
2018-08-03T06:53:53.734Z,101759.37
2018-08-03T06:56:23.862Z,101761.02
2018-08-03T06:58:53.884Z,101759.33
2018-08-03T07:01:22.964Z,101755.14
2018-08-03T07:03:52.244Z,101758.84
2018-08-03T07:06:21.605Z,101759.81
2018-08-03T07:08:50.693Z,101758.94
2018-08-03T07:11:19.749Z,101762.02
2018-08-03T07:13:49.122Z,101758.34
2018-08-03T07:16:19.075Z,101756.06
2018-08-03T07:18:48.186Z,101755.36
2018-08-03T07:21:23.458Z,101757.84
2018-08-03T07:23:52.656Z,101761.12
2018-08-03T07:26:21.726Z,101755.04
2018-08-03T07:28:51.478Z,101754.81
2018-08-03T07:31:20.760Z,101753.88
2018-08-03T07:33:50.223Z,101756.97
2018-08-03T07:36:19.513Z,101759.59
2018-08-03T07:38:49.088Z,101754.53
2018-08-03T07:41:18.175Z,101758.20
2018-08-03T07:43:47.582Z,101757.30
2018-08-03T07:46:16.679Z,101755.72
2018-08-03T07:48:45.780Z,101762.59
2018-08-03T07:51:15.006Z,101766.75
2018-08-03T07:53:44.081Z,101759.03
2018-08-03T07:56:13.728Z,101759.37
2018-08-03T07:58:43.008Z,101756.73
2018-08-03T08:01:12.120Z,101763.94
2018-08-03T08:03:41.388Z,101756.48
2018-08-03T08:06:10.844Z,101756.78
2018-08-03T08:08:39.913Z,101758.84
2018-08-03T08:11:08.996Z,101752.83
2018-08-03T08:13:38.205Z,101753.39
2018-08-03T08:16:07.463Z,101746.17
2018-08-03T08:18:36.554Z,101746.92
2018-08-03T08:21:05.699Z,101750.09
2018-08-03T08:23:34.889Z,101744.19
2018-08-03T08:26:04.004Z,101747.33
2018-08-03T08:28:33.118Z,101745.17
2018-08-03T08:31:02.338Z,101740.50
2018-08-03T08:33:31.844Z,101742.90
2018-08-03T08:36:00.906Z,101735.78
2018-08-03T08:38:31.293Z,101729.38
2018-08-03T08:41:00.378Z,101727.38
2018-08-03T08:43:29.531Z,101729.31
2018-08-03T08:45:59.397Z,101724.95
2018-08-03T08:48:28.456Z,101728.03
2018-08-03T08:50:57.556Z,101719.06
2018-08-03T08:53:27.033Z,101716.72
2018-08-03T08:55:56.099Z,101716.05
2018-08-03T08:58:25.197Z,101722.84
2018-08-03T09:00:54.783Z,101718.13
2018-08-03T09:03:23.796Z,101718.82
2018-08-03T09:05:52.891Z,101711.55
2018-08-03T09:08:22.124Z,101710.91
2018-08-03T09:10:51.306Z,101714.30
2018-08-03T09:13:20.483Z,101711.78
2018-08-03T09:15:49.937Z,101711.60
2018-08-03T09:18:19.080Z,101709.08
2018-08-03T09:20:48.250Z,101710.61
2018-08-03T09:23:17.354Z,101707.70
2018-08-03T09:25:46.443Z,101702.62
2018-08-03T09:28:15.747Z,101710.61
2018-08-03T09:30:44.808Z,101705.34
2018-08-03T09:33:13.882Z,101702.98
2018-08-03T09:35:43.376Z,101700.74
2018-08-03T09:38:16.838Z,101705.19
2018-08-03T09:40:45.915Z,101704.16
2018-08-03T09:43:15.163Z,101695.13
2018-08-03T09:45:44.325Z,101696.12
2018-08-03T09:48:13.456Z,101694.75
2018-08-03T09:50:43.048Z,101693.04
2018-08-03T09:53:12.162Z,101691.66
2018-08-03T09:55:41.357Z,101690.48
2018-08-03T09:58:10.623Z,101690.93
2018-08-03T10:00:45.172Z,101691.77
2018-08-03T10:03:14.360Z,101683.56
2018-08-03T10:05:43.476Z,101679.00
2018-08-03T10:08:12.860Z,101675.74
2018-08-03T10:10:41.954Z,101672.52
2018-08-03T10:13:11.182Z,101672.52
2018-08-03T10:15:41.339Z,101672.16
2018-08-03T10:18:10.549Z,101666.82
2018-08-03T10:20:39.758Z,101670.87
2018-08-03T10:23:09.464Z,101675.77
2018-08-03T10:25:38.532Z,101672.23
2018-08-03T10:28:07.680Z,101664.17
2018-08-03T10:30:36.974Z,101659.53
2018-08-03T10:33:06.073Z,101663.58
2018-08-03T10:35:35.352Z,101651.31
2018-08-03T10:38:04.644Z,101647.71
2018-08-03T10:40:33.721Z,101647.90
2018-08-03T10:43:02.898Z,101644.98
2018-08-03T10:45:32.163Z,101643.04
2018-08-03T10:48:01.448Z,101637.95
2018-08-03T10:50:30.844Z,101635.38
2018-08-03T10:53:00.246Z,101634.03
2018-08-03T10:55:29.331Z,101627.21
2018-08-03T10:57:58.479Z,101628.23
2018-08-03T11:00:29.571Z,101630.64
2018-08-03T11:02:59.237Z,101632.81
2018-08-03T11:05:28.871Z,101631.45
2018-08-03T11:07:58.733Z,101628.91
2018-08-03T11:10:27.816Z,101628.59
2018-08-03T11:12:56.919Z,101628.91
2018-08-03T11:15:26.407Z,101623.16
2018-08-03T11:17:55.514Z,101616.20
2018-08-03T11:20:24.594Z,101615.27
2018-08-03T11:22:53.851Z,101608.80
2018-08-03T11:25:23.058Z,101602.59
2018-08-03T11:27:52.182Z,101602.97
2018-08-03T11:30:21.711Z,101603.88
2018-08-03T11:32:51.572Z,101600.48
2018-08-03T11:35:20.645Z,101599.95
2018-08-03T11:37:50.192Z,101600.73
2018-08-03T11:40:19.247Z,101599.75
2018-08-03T11:42:48.334Z,101595.69
2018-08-03T11:45:17.430Z,101601.11
2018-08-03T11:47:46.869Z,101595.50
2018-08-03T11:50:15.954Z,101595.98
2018-08-03T11:52:45.507Z,101589.75
2018-08-03T11:55:14.575Z,101583.93
2018-08-03T11:57:43.652Z,101585.42
2018-08-03T12:00:12.884Z,101591.44
2018-08-03T12:02:41.974Z,101582.02
2018-08-03T12:05:11.099Z,101586.97
2018-08-03T12:07:40.871Z,101581.81
2018-08-03T12:10:09.947Z,101579.14
2018-08-03T12:12:39.176Z,101574.89
2018-08-03T12:15:08.501Z,101566.59
2018-08-03T12:17:38.091Z,101564.27
2018-08-03T12:20:07.453Z,101563.33
2018-08-03T12:22:36.892Z,101564.40
2018-08-03T12:25:06.030Z,101564.48
2018-08-03T12:27:35.175Z,101564.19
2018-08-03T12:30:05.095Z,101556.31
2018-08-03T12:32:34.178Z,101561.89
2018-08-03T12:35:03.944Z,101554.09
2018-08-03T12:37:33.510Z,101554.33
2018-08-03T12:40:02.638Z,101554.63
2018-08-03T12:42:31.690Z,101546.41
2018-08-03T12:45:01.043Z,101551.09
2018-08-03T12:47:30.140Z,101541.05
2018-08-03T12:49:59.394Z,101549.09
2018-08-03T12:52:28.624Z,101540.39
2018-08-03T12:54:57.311Z,101532.91
2018-08-03T12:57:26.626Z,101531.38
2018-08-03T12:59:56.072Z,101531.51
2018-08-03T13:02:25.206Z,101533.80
2018-08-03T13:04:54.511Z,101526.07
2018-08-03T13:07:23.792Z,101531.02
2018-08-03T13:09:52.892Z,101527.81
2018-08-03T13:12:22.295Z,101532.81
2018-08-03T13:14:51.399Z,101523.23
2018-08-03T13:17:20.590Z,101525.08
2018-08-03T13:19:49.782Z,101517.69
2018-08-03T13:22:23.012Z,101520.77
2018-08-03T13:24:52.785Z,101516.06
2018-08-03T13:27:21.861Z,101510.22
2018-08-03T13:29:51.005Z,101510.89
2018-08-03T13:32:20.263Z,101509.52
2018-08-03T13:34:49.393Z,101506.90
2018-08-03T13:37:18.499Z,101502.99
2018-08-03T13:39:47.709Z,101503.44
2018-08-03T13:42:16.804Z,101489.64
2018-08-03T13:44:46.026Z,101494.64
2018-08-03T13:47:15.287Z,101491.64
2018-08-03T13:49:44.402Z,101484.66
2018-08-03T13:52:13.562Z,101481.69
2018-08-03T13:54:42.871Z,101476.88
2018-08-03T13:57:12.611Z,101474.22
2018-08-03T13:59:41.757Z,101469.84
2018-08-03T14:02:18.427Z,101461.78
2018-08-03T14:04:48.127Z,101462.16
2018-08-03T14:07:17.253Z,101458.00
2018-08-03T14:09:47.399Z,101460.71
2018-08-03T14:12:16.579Z,101453.61
2018-08-03T14:14:45.753Z,101448.61
2018-08-03T14:17:15.363Z,101454.41
2018-08-03T14:19:44.453Z,101451.11
2018-08-03T14:22:13.548Z,101446.86
2018-08-03T14:24:43.055Z,101446.73
2018-08-03T14:27:12.150Z,101450.11
2018-08-03T14:29:41.218Z,101442.34
2018-08-03T14:32:10.625Z,101442.59
2018-08-03T14:34:39.789Z,101434.09
2018-08-03T14:37:08.937Z,101430.13
2018-08-03T14:39:38.251Z,101423.91
2018-08-03T14:42:07.385Z,101424.51
2018-08-03T14:44:36.498Z,101419.03
2018-08-03T14:47:05.841Z,101423.97
2018-08-03T14:49:35.171Z,101414.89
2018-08-03T14:52:08.251Z,101412.74
2018-08-03T14:54:37.424Z,101414.44
2018-08-03T14:57:06.520Z,101414.48
2018-08-03T14:59:36.639Z,101405.30
2018-08-03T15:02:05.923Z,101406.74
2018-08-03T15:04:35.706Z,101408.77
2018-08-03T15:07:05.261Z,101409.26
2018-08-03T15:09:34.318Z,101407.56
2018-08-03T15:12:03.457Z,101404.42
2018-08-03T15:14:32.752Z,101398.75
2018-08-03T15:17:01.862Z,101401.22
2018-08-03T15:19:30.970Z,101397.73
2018-08-03T15:22:00.227Z,101387.09
2018-08-03T15:24:29.830Z,101385.91
2018-08-03T15:26:58.950Z,101380.82
2018-08-03T15:29:28.040Z,101382.16
2018-08-03T15:31:57.330Z,101383.28
2018-08-03T15:34:26.459Z,101384.36
2018-08-03T15:36:55.600Z,101376.08
2018-08-03T15:39:25.107Z,101375.83
2018-08-03T15:41:54.193Z,101380.62
2018-08-03T15:44:23.356Z,101375.05
2018-08-03T15:46:52.625Z,101368.09
2018-08-03T15:49:21.919Z,101367.70
2018-08-03T15:51:51.008Z,101376.17
2018-08-03T15:54:20.322Z,101367.47
2018-08-03T15:56:49.434Z,101368.70
2018-08-03T15:59:18.509Z,101375.48
2018-08-03T16:01:48.638Z,101362.31
2018-08-03T16:04:17.712Z,101359.36
2018-08-03T16:06:46.875Z,101357.45
2018-08-03T16:09:16.125Z,101357.16
2018-08-03T16:11:45.262Z,101357.26
2018-08-03T16:14:14.362Z,101351.01
2018-08-03T16:16:43.819Z,101351.84
2018-08-03T16:19:12.881Z,101351.45
2018-08-03T16:21:42.152Z,101348.67
2018-08-03T16:24:12.109Z,101349.86
2018-08-03T16:26:41.230Z,101343.44
2018-08-03T16:29:11.129Z,101337.87
2018-08-03T16:31:40.525Z,101335.30
2018-08-03T16:34:09.270Z,101337.19
2018-08-03T16:36:38.336Z,101332.06
2018-08-03T16:39:09.971Z,101328.77
2018-08-03T16:41:39.353Z,101336.78
2018-08-03T16:44:08.440Z,101329.31
2018-08-03T16:46:37.777Z,101328.93
2018-08-03T16:49:07.477Z,101330.26
2018-08-03T16:51:37.673Z,101331.79
2018-08-03T16:54:06.802Z,101325.66
2018-08-03T16:56:35.987Z,101330.56
2018-08-03T16:59:05.378Z,101328.26
2018-08-03T17:01:34.446Z,101329.73
2018-08-03T17:04:03.539Z,101326.81
2018-08-03T17:06:33.013Z,101330.61
2018-08-03T17:09:02.104Z,101334.89
2018-08-03T17:11:31.184Z,101332.72
2018-08-03T17:14:00.466Z,101324.28
2018-08-03T17:16:29.558Z,101325.36
2018-08-03T17:18:59.791Z,101326.64
2018-08-03T17:21:28.866Z,101329.38
2018-08-03T17:23:58.120Z,101324.75
2018-08-03T17:26:27.387Z,101328.00
2018-08-03T17:28:56.462Z,101335.06
2018-08-03T17:31:25.504Z,101331.23
2018-08-03T17:33:55.029Z,101325.15
2018-08-03T17:36:24.618Z,101333.23
2018-08-03T17:38:54.097Z,101329.97
2018-08-03T17:41:23.373Z,101333.45
2018-08-03T17:43:52.677Z,101332.45
2018-08-03T17:46:21.776Z,101333.08
2018-08-03T17:48:51.709Z,101336.75
2018-08-03T17:51:21.007Z,101335.69
2018-08-03T17:53:50.098Z,101342.00
2018-08-03T17:56:19.549Z,101336.84
2018-08-03T17:58:48.705Z,101337.43
2018-08-03T18:01:17.841Z,101337.74
2018-08-03T18:03:47.982Z,101336.14
2018-08-03T18:06:17.264Z,101337.27
2018-08-03T18:08:46.813Z,101338.84
2018-08-03T18:11:15.537Z,101338.67
2018-08-03T18:13:44.642Z,101341.63
2018-08-03T18:16:13.927Z,101342.09
2018-08-03T18:18:43.087Z,101344.39
2018-08-03T18:21:13.421Z,101342.88
2018-08-03T18:23:42.524Z,101345.77
2018-08-03T18:26:11.731Z,101340.95
2018-08-03T18:28:40.998Z,101337.82
2018-08-03T18:31:10.075Z,101340.58
2018-08-03T18:33:39.414Z,101342.76
2018-08-03T18:36:08.479Z,101343.50
2018-08-03T18:38:37.587Z,101338.03
2018-08-03T18:41:07.103Z,101341.80
2018-08-03T18:43:36.205Z,101335.86
2018-08-03T18:46:05.670Z,101331.50
2018-08-03T18:48:35.015Z,101337.68
2018-08-03T18:51:04.403Z,101340.70
2018-08-03T18:53:34.061Z,101334.27
2018-08-03T18:56:03.262Z,101330.94
2018-08-03T18:58:32.377Z,101328.59
2018-08-03T19:01:01.873Z,101333.80
2018-08-03T19:03:30.976Z,101332.60
2018-08-03T19:06:00.101Z,101333.77
2018-08-03T19:08:29.609Z,101337.45
2018-08-03T19:10:58.707Z,101334.73
2018-08-03T19:13:27.423Z,101334.81
2018-08-03T19:15:57.333Z,101342.03
2018-08-03T19:18:26.827Z,101343.91
2018-08-03T19:20:55.941Z,101345.59
2018-08-03T19:23:25.040Z,101349.76
2018-08-03T19:25:54.412Z,101347.30
2018-08-03T19:28:23.498Z,101353.28
2018-08-03T19:30:52.796Z,101361.62
2018-08-03T19:33:21.926Z,101358.53
2018-08-03T19:35:51.029Z,101363.59
2018-08-03T19:38:21.024Z,101365.23
2018-08-03T19:40:50.168Z,101366.13
2018-08-03T19:43:19.238Z,101372.82
2018-08-03T19:45:48.564Z,101374.80
2018-08-03T19:48:17.621Z,101377.52
2018-08-03T19:50:46.712Z,101381.52
2018-08-03T19:53:16.301Z,101381.59
2018-08-03T19:55:45.598Z,101385.42
2018-08-03T19:58:14.691Z,101387.48
2018-08-03T20:00:43.989Z,101390.21
2018-08-03T20:03:13.343Z,101393.03
2018-08-03T20:05:42.788Z,101393.28
2018-08-03T20:08:11.857Z,101389.98
2018-08-03T20:10:41.183Z,101391.06
2018-08-03T20:13:10.847Z,101392.64
2018-08-03T20:15:40.702Z,101396.47
2018-08-03T20:18:09.849Z,101389.05
2018-08-03T20:20:39.327Z,101389.25
2018-08-03T20:23:08.450Z,101391.20
2018-08-03T20:25:37.639Z,101395.44
2018-08-03T20:28:06.971Z,101398.22
2018-08-03T20:30:36.155Z,101393.20
2018-08-03T20:33:05.205Z,101389.64
2018-08-03T20:35:34.392Z,101385.73
2018-08-03T20:38:04.502Z,101391.12
2018-08-03T20:40:33.601Z,101392.84
2018-08-03T20:43:03.098Z,101400.21
2018-08-03T20:45:32.213Z,101398.55
2018-08-03T20:48:01.312Z,101391.11
2018-08-03T20:50:30.723Z,101400.63
2018-08-03T20:53:00.221Z,101409.31
2018-08-03T20:55:29.366Z,101404.25
2018-08-03T20:57:58.487Z,101404.30
2018-08-03T21:00:27.795Z,101408.61
2018-08-03T21:02:57.656Z,101408.66
2018-08-03T21:05:26.820Z,101408.67
2018-08-03T21:07:56.348Z,101415.69
2018-08-03T21:10:25.439Z,101407.39
2018-08-03T21:12:54.743Z,101411.30
2018-08-03T21:15:24.213Z,101414.38
2018-08-03T21:17:53.263Z,101412.52
2018-08-03T21:20:22.312Z,101410.33
2018-08-03T21:22:51.815Z,101414.91
2018-08-03T21:25:20.969Z,101413.20
2018-08-03T21:27:50.108Z,101423.61
2018-08-03T21:30:19.479Z,101423.47
2018-08-03T21:32:48.532Z,101420.07
2018-08-03T21:35:17.654Z,101420.90
2018-08-03T21:37:46.575Z,101420.25
2018-08-03T21:40:15.707Z,101419.43
2018-08-03T21:42:44.775Z,101417.71
2018-08-03T21:45:14.077Z,101418.78
2018-08-03T21:47:43.324Z,101417.45
2018-08-03T21:50:12.390Z,101412.03
2018-08-03T21:52:41.846Z,101405.95
2018-08-03T21:55:10.911Z,101401.55
2018-08-03T21:57:39.964Z,101401.55
2018-08-03T22:00:12.607Z,101404.29
2018-08-03T22:02:41.784Z,101401.55
2018-08-03T22:05:11.502Z,101401.24
2018-08-03T22:07:40.744Z,101399.16
2018-08-03T22:10:09.813Z,101391.69
2018-08-03T22:12:38.967Z,101394.61
2018-08-03T22:15:08.649Z,101387.98
2018-08-03T22:17:37.864Z,101387.66
2018-08-03T22:20:07.021Z,101394.13
2018-08-03T22:22:36.573Z,101387.00
2018-08-03T22:25:07.072Z,101389.02
2018-08-03T22:27:36.145Z,101386.98
2018-08-03T22:30:05.951Z,101383.59
2018-08-03T22:32:35.247Z,101385.30
2018-08-03T22:35:05.313Z,101383.11
2018-08-03T22:37:34.625Z,101384.31
2018-08-03T22:40:04.517Z,101384.98
2018-08-03T22:42:33.592Z,101382.30
2018-08-03T22:45:02.742Z,101384.83
2018-08-03T22:47:32.020Z,101390.10
2018-08-03T22:50:01.219Z,101382.97
2018-08-03T22:52:30.266Z,101387.05
2018-08-03T22:54:59.612Z,101383.64
2018-08-03T22:57:28.712Z,101385.00
2018-08-03T22:59:57.829Z,101382.63
2018-08-03T23:02:27.306Z,101382.99
2018-08-03T23:04:56.419Z,101382.16
2018-08-03T23:07:25.455Z,101375.34
2018-08-03T23:09:54.767Z,101380.27
2018-08-03T23:12:24.098Z,101382.46
2018-08-03T23:14:53.195Z,101379.05
2018-08-03T23:17:22.279Z,101374.84
2018-08-03T23:19:51.611Z,101376.86
2018-08-03T23:22:20.756Z,101382.95
2018-08-03T23:24:49.575Z,101382.27
2018-08-03T23:27:19.344Z,101380.91
2018-08-03T23:29:48.459Z,101376.02
2018-08-03T23:32:17.532Z,101378.91
2018-08-03T23:34:47.284Z,101377.36
2018-08-03T23:37:16.351Z,101368.37
2018-08-03T23:39:45.432Z,101370.73
2018-08-03T23:42:15.060Z,101367.20
2018-08-03T23:44:44.281Z,101364.82
2018-08-03T23:47:13.377Z,101357.01
2018-08-03T23:49:43.597Z,101362.95
2018-08-03T23:52:13.016Z,101362.26
2018-08-03T23:54:42.203Z,101359.38
2018-08-03T23:57:11.644Z,101357.70
2018-08-03T23:59:41.161Z,101356.34
